Time;durP1;ratioP1;P1;durP2;ratioP2;P2;SDS_P1;SDS_P2;PMS_P1;PMS_P2;Temp;Humidity;BMP_temperature;BMP_pressure;BME280_temperature;BME280_humidity;BME280_pressure;Samples;Min_cycle;Max_cycle;Signal;HPM_P1;HPM_P2
2022/06/04 00:01:40;;;;;;;10.13;9.33;;;;;;;;;;5014388;28;20182;-75
2022/06/04 00:04:05;;;;;;;10.77;9.87;;;;;;;;;;5028831;28;20202;-75
2022/06/04 00:06:30;;;;;;;10.47;9.47;;;;;;;;;;5004804;28;20276;-75
2022/06/04 00:08:55;;;;;;;10.17;9.27;;;;;;;;;;5013140;28;20170;-75
2022/06/04 00:16:49;;;;;;;11.00;10.07;;;;;;;;;;5017344;28;20265;-75
2022/06/04 00:19:14;;;;;;;11.03;10.03;;;;;;;;;;5013068;28;20265;-75
2022/06/04 00:21:39;;;;;;;13.17;11.97;;;;;;;;;;5030606;28;20189;-75
2022/06/04 00:24:06;;;;;;;13.43;12.13;;;;;;;;;;5027643;28;20202;-75
2022/06/04 00:26:31;;;;;;;10.13;9.33;;;;;;;;;;5012074;28;20178;-75
2022/06/04 00:28:56;;;;;;;12.73;11.37;;;;;;;;;;5014287;28;20193;-75
2022/06/04 00:31:21;;;;;;;14.17;12.63;;;;;;;;;;5024949;28;20183;-75
2022/06/04 00:33:47;;;;;;;14.40;12.93;;;;;;;;;;5027927;28;20174;-75
2022/06/04 00:36:12;;;;;;;17.83;12.03;;;;;;;;;;5033401;28;20182;-75
2022/06/04 00:38:37;;;;;;;14.40;11.23;;;;;;;;;;5031609;28;20180;-75
2022/06/04 00:41:11;;;;;;;11.50;10.40;;;;;;;;;;5031058;28;20184;-75
2022/06/04 00:43:58;;;;;;;12.13;10.67;;;;;;;;;;5026533;28;20192;-75
2022/06/04 00:46:23;;;;;;;13.93;12.17;;;;;;;;;;5026179;28;20221;-75
2022/06/04 00:48:48;;;;;;;13.23;11.80;;;;;;;;;;5015087;28;20219;-75
2022/06/04 00:51:13;;;;;;;13.63;12.40;;;;;;;;;;5026392;28;20182;-75
2022/06/04 00:53:41;;;;;;;14.50;13.00;;;;;;;;;;5013692;28;20214;-75
2022/06/04 00:56:25;;;;;;;13.80;12.37;;;;;;;;;;5014603;28;20179;-75
2022/06/04 00:58:50;;;;;;;14.53;13.00;;;;;;;;;;5011945;28;20189;-75
2022/06/04 01:01:20;;;;;;;14.07;12.87;;;;;;;;;;5020597;28;20179;-75
2022/06/04 01:03:56;;;;;;;14.53;13.17;;;;;;;;;;5009543;28;20250;-75
2022/06/04 01:06:25;;;;;;;12.20;10.23;;;;;;;;;;5028050;28;20246;-76
2022/06/04 01:09:11;;;;;;;12.00;10.90;;;;;;;;;;5036076;28;20177;-75
2022/06/04 01:12:10;;;;;;;11.00;9.93;;;;;;;;;;5020733;28;20258;-75
2022/06/04 01:14:41;;;;;;;12.67;11.50;;;;;;;;;;5009371;28;20195;-75
2022/06/04 01:17:14;;;;;;;14.67;13.37;;;;;;;;;;5039476;28;20177;-75
2022/06/04 01:19:39;;;;;;;14.93;13.63;;;;;;;;;;5011839;28;20176;-75
2022/06/04 01:22:17;;;;;;;16.27;14.37;;;;;;;;;;5024576;28;20192;-75
2022/06/04 01:24:56;;;;;;;15.70;14.00;;;;;;;;;;5004413;28;20201;-75
2022/06/04 01:27:42;;;;;;;15.63;14.23;;;;;;;;;;5010189;28;20187;-75
2022/06/04 01:30:16;;;;;;;13.67;12.37;;;;;;;;;;4995258;28;20252;-75
2022/06/04 01:32:44;;;;;;;15.53;14.00;;;;;;;;;;5014683;28;20181;-75
2022/06/04 01:35:09;;;;;;;16.23;14.73;;;;;;;;;;5009095;28;20186;-75
2022/06/04 01:37:55;;;;;;;14.70;13.40;;;;;;;;;;5015852;28;20183;-75
2022/06/04 01:43:08;;;;;;;14.13;12.77;;;;;;;;;;5020900;28;20240;-75
2022/06/04 01:45:34;;;;;;;15.03;13.60;;;;;;;;;;5040782;28;20177;-76
2022/06/04 01:48:01;;;;;;;13.50;12.27;;;;;;;;;;5024260;28;20181;-75
2022/06/04 01:50:29;;;;;;;14.10;12.77;;;;;;;;;;5013104;28;20285;-75
2022/06/04 01:52:56;;;;;;;13.03;11.80;;;;;;;;;;5035548;28;20263;-75
2022/06/04 01:55:24;;;;;;;14.30;12.80;;;;;;;;;;5028182;28;20251;-75
2022/06/04 01:57:58;;;;;;;13.37;12.23;;;;;;;;;;4998773;28;20184;-75
2022/06/04 02:00:26;;;;;;;13.30;12.10;;;;;;;;;;5026158;28;20187;-75
2022/06/04 02:02:54;;;;;;;14.57;13.17;;;;;;;;;;5012101;28;20203;-75
2022/06/04 02:05:22;;;;;;;15.43;13.83;;;;;;;;;;5017931;28;20186;-75
2022/06/04 02:07:49;;;;;;;14.10;12.70;;;;;;;;;;5010357;28;20191;-75
2022/06/04 02:10:17;;;;;;;16.00;14.30;;;;;;;;;;5024384;28;20183;-75
2022/06/04 02:12:44;;;;;;;17.03;15.23;;;;;;;;;;5025416;28;20177;-75
2022/06/04 02:15:12;;;;;;;17.20;15.50;;;;;;;;;;5024072;28;20186;-75
2022/06/04 02:17:38;;;;;;;16.53;14.93;;;;;;;;;;5004471;28;20282;-75
2022/06/04 02:20:04;;;;;;;16.63;15.00;;;;;;;;;;5011803;28;20290;-75
2022/06/04 02:22:31;;;;;;;15.40;14.00;;;;;;;;;;5008672;28;20267;-75
2022/06/04 02:24:59;;;;;;;16.23;14.43;;;;;;;;;;5022650;28;20234;-75
2022/06/04 02:27:24;;;;;;;16.80;15.10;;;;;;;;;;5027155;28;20185;-75
2022/06/04 02:29:49;;;;;;;16.20;14.50;;;;;;;;;;5018594;28;20172;-75
2022/06/04 02:32:35;;;;;;;16.97;15.27;;;;;;;;;;5021804;28;20200;-75
2022/06/04 02:35:00;;;;;;;16.80;15.17;;;;;;;;;;5024693;28;20184;-75
2022/06/04 02:37:30;;;;;;;15.33;13.83;;;;;;;;;;5007502;28;20190;-75
2022/06/04 02:39:55;;;;;;;13.50;12.13;;;;;;;;;;5001159;28;20181;-75
2022/06/04 02:42:21;;;;;;;12.90;11.50;;;;;;;;;;5018818;28;20194;-75
2022/06/04 02:45:02;;;;;;;12.37;11.20;;;;;;;;;;5023531;28;20204;-75
2022/06/04 02:47:39;;;;;;;13.90;11.37;;;;;;;;;;5021375;28;20234;-75
2022/06/04 02:50:12;;;;;;;13.13;11.93;;;;;;;;;;4988619;28;20232;-75
2022/06/04 02:52:38;;;;;;;12.97;11.67;;;;;;;;;;4986956;28;20183;-75
2022/06/04 02:55:09;;;;;;;14.67;13.33;;;;;;;;;;5002326;28;20188;-75
2022/06/04 02:57:37;;;;;;;13.43;12.17;;;;;;;;;;5003664;28;20214;-75
2022/06/04 03:00:03;;;;;;;14.73;13.33;;;;;;;;;;4983361;28;20187;-75
2022/06/04 03:02:30;;;;;;;13.97;12.57;;;;;;;;;;5017018;28;20201;-75
2022/06/04 03:04:56;;;;;;;15.20;13.20;;;;;;;;;;4993425;28;20255;-75
2022/06/04 03:07:22;;;;;;;18.37;12.53;;;;;;;;;;4996411;28;20272;-75
2022/06/04 03:09:48;;;;;;;12.23;10.97;;;;;;;;;;4978641;28;20245;-75
2022/06/04 03:12:13;;;;;;;14.03;12.57;;;;;;;;;;5009903;28;20190;-76
2022/06/04 03:14:39;;;;;;;13.77;12.47;;;;;;;;;;4985111;28;20178;-75
2022/06/04 03:17:08;;;;;;;13.70;12.40;;;;;;;;;;5003714;28;20226;-76
2022/06/04 03:19:33;;;;;;;15.03;12.87;;;;;;;;;;4984350;28;20202;-75
2022/06/04 03:22:00;;;;;;;12.90;11.60;;;;;;;;;;4979386;28;20216;-76
2022/06/04 03:24:25;;;;;;;13.77;12.47;;;;;;;;;;4989642;28;20234;-75
2022/06/04 03:26:50;;;;;;;11.53;9.80;;;;;;;;;;5011191;28;20209;-75
2022/06/04 03:29:16;;;;;;;15.07;11.00;;;;;;;;;;4985459;28;20243;-75
2022/06/04 03:31:41;;;;;;;11.10;10.00;;;;;;;;;;4986021;28;20188;-75
2022/06/04 03:34:06;;;;;;;10.77;8.47;;;;;;;;;;4999094;28;20185;-75
2022/06/04 03:36:33;;;;;;;11.40;8.60;;;;;;;;;;5002162;28;20234;-76
2022/06/04 03:38:58;;;;;;;10.03;9.13;;;;;;;;;;5006819;28;20213;-76
2022/06/04 03:41:24;;;;;;;9.70;8.80;;;;;;;;;;4986507;28;20227;-76
2022/06/04 03:43:52;;;;;;;8.30;7.30;;;;;;;;;;4989660;28;20211;-76
2022/06/04 03:46:17;;;;;;;9.57;7.60;;;;;;;;;;5007060;28;20249;-75
2022/06/04 03:48:43;;;;;;;9.93;8.07;;;;;;;;;;5010460;28;20225;-75
2022/06/04 03:51:08;;;;;;;8.57;6.90;;;;;;;;;;5009864;28;20192;-75
2022/06/04 03:53:33;;;;;;;8.00;7.30;;;;;;;;;;5010956;28;20185;-76
2022/06/04 03:55:58;;;;;;;6.87;6.10;;;;;;;;;;5009811;28;20192;-76
2022/06/04 03:58:29;;;;;;;7.13;6.43;;;;;;;;;;5006561;28;20177;-76
2022/06/04 04:00:55;;;;;;;7.40;6.70;;;;;;;;;;5005356;28;20194;-75
2022/06/04 04:03:21;;;;;;;9.17;8.43;;;;;;;;;;4997750;28;20221;-75
2022/06/04 04:05:50;;;;;;;8.87;8.07;;;;;;;;;;5009816;28;20187;-75
2022/06/04 04:08:16;;;;;;;8.97;7.70;;;;;;;;;;5008041;28;20231;-76
2022/06/04 04:10:43;;;;;;;10.50;7.47;;;;;;;;;;5008736;28;20276;-76
2022/06/04 04:13:09;;;;;;;8.63;7.83;;;;;;;;;;5004952;28;20178;-75
2022/06/04 04:15:34;;;;;;;8.53;7.77;;;;;;;;;;5004671;28;20194;-76
2022/06/04 04:17:59;;;;;;;10.67;9.67;;;;;;;;;;5016684;28;20184;-75
2022/06/04 04:20:28;;;;;;;9.57;8.33;;;;;;;;;;5008050;28;20219;-76
2022/06/04 04:22:54;;;;;;;9.00;8.20;;;;;;;;;;5011748;28;20463;-76
2022/06/04 04:25:20;;;;;;;8.20;7.43;;;;;;;;;;5012855;28;20189;-76
2022/06/04 04:27:46;;;;;;;9.27;8.30;;;;;;;;;;5003818;28;20383;-76
2022/06/04 04:30:13;;;;;;;11.33;8.37;;;;;;;;;;5006961;28;20179;-76
2022/06/04 04:32:38;;;;;;;9.43;8.63;;;;;;;;;;4998143;28;20189;-76
2022/06/04 04:35:04;;;;;;;8.93;8.13;;;;;;;;;;5009184;28;20175;-75
2022/06/04 04:37:30;;;;;;;8.17;7.47;;;;;;;;;;4999409;28;20178;-75
2022/06/04 04:39:55;;;;;;;11.83;8.27;;;;;;;;;;5003270;28;20182;-76
2022/06/04 04:42:20;;;;;;;9.10;8.23;;;;;;;;;;5006512;28;20185;-76
2022/06/04 04:44:45;;;;;;;9.43;8.53;;;;;;;;;;5000546;28;20293;-75
2022/06/04 04:47:11;;;;;;;10.27;9.13;;;;;;;;;;5012311;28;20229;-75
2022/06/04 04:49:36;;;;;;;10.10;9.20;;;;;;;;;;4988480;28;20202;-76
2022/06/04 04:52:02;;;;;;;10.53;9.63;;;;;;;;;;4998325;28;20267;-75
2022/06/04 04:54:28;;;;;;;9.97;9.07;;;;;;;;;;5007690;28;20207;-75
2022/06/04 04:56:53;;;;;;;8.73;7.90;;;;;;;;;;5003480;28;20244;-75
2022/06/04 04:59:18;;;;;;;8.60;7.73;;;;;;;;;;5004333;28;20194;-75
2022/06/04 05:01:44;;;;;;;8.33;7.60;;;;;;;;;;5008444;28;20221;-75
2022/06/04 05:04:09;;;;;;;7.63;6.97;;;;;;;;;;4994333;28;20202;-75
2022/06/04 05:06:34;;;;;;;8.00;7.20;;;;;;;;;;5011968;28;20183;-75
2022/06/04 05:09:00;;;;;;;8.77;6.67;;;;;;;;;;5006422;28;20199;-75
2022/06/04 05:11:27;;;;;;;7.57;6.87;;;;;;;;;;5009291;28;20193;-75
2022/06/04 05:13:52;;;;;;;7.70;6.90;;;;;;;;;;5015492;28;20191;-75
2022/06/04 05:16:18;;;;;;;7.60;6.90;;;;;;;;;;5009624;28;20199;-75
2022/06/04 05:18:44;;;;;;;7.40;6.70;;;;;;;;;;5003653;28;20183;-75
2022/06/04 05:21:11;;;;;;;7.37;6.67;;;;;;;;;;5004400;28;20191;-75
2022/06/04 05:23:36;;;;;;;6.70;6.20;;;;;;;;;;5008446;28;20207;-76
2022/06/04 05:26:01;;;;;;;7.37;6.50;;;;;;;;;;5026185;28;20180;-76
2022/06/04 05:28:27;;;;;;;9.30;6.17;;;;;;;;;;5002785;28;20261;-75
2022/06/04 05:30:52;;;;;;;7.63;5.90;;;;;;;;;;5013727;28;20306;-76
2022/06/04 05:33:18;;;;;;;6.93;6.03;;;;;;;;;;5003230;28;20202;-76
2022/06/04 05:35:43;;;;;;;6.53;5.87;;;;;;;;;;5009521;28;20194;-75
2022/06/04 05:38:10;;;;;;;6.10;5.10;;;;;;;;;;5005286;28;20186;-76
2022/06/04 05:40:36;;;;;;;6.13;5.67;;;;;;;;;;5008362;28;20179;-75
2022/06/04 05:43:04;;;;;;;9.43;5.90;;;;;;;;;;5007596;28;20214;-76
2022/06/04 05:45:29;;;;;;;10.43;6.60;;;;;;;;;;5012033;28;20179;-76
2022/06/04 05:47:54;;;;;;;4.30;3.90;;;;;;;;;;5012260;28;20249;-76
2022/06/04 05:50:20;;;;;;;9.10;5.23;;;;;;;;;;5008848;28;20214;-76
2022/06/04 05:52:45;;;;;;;8.00;6.30;;;;;;;;;;5011648;28;20182;-76
2022/06/04 05:55:10;;;;;;;8.60;6.10;;;;;;;;;;5011057;28;20186;-76
2022/06/04 05:57:35;;;;;;;7.37;6.50;;;;;;;;;;5000743;28;20180;-76
2022/06/04 06:00:01;;;;;;;6.83;5.43;;;;;;;;;;5011667;28;20225;-76
2022/06/04 06:02:26;;;;;;;6.80;5.97;;;;;;;;;;5006482;28;20186;-76
2022/06/04 06:04:51;;;;;;;5.47;4.90;;;;;;;;;;5009960;28;20546;-76
2022/06/04 06:07:19;;;;;;;6.63;4.87;;;;;;;;;;5022248;28;20174;-76
2022/06/04 06:09:44;;;;;;;6.33;5.73;;;;;;;;;;5011277;28;20174;-76
2022/06/04 06:12:10;;;;;;;7.50;5.60;;;;;;;;;;5005019;28;20549;-77
2022/06/04 06:14:35;;;;;;;8.07;5.90;;;;;;;;;;5014563;28;20182;-76
2022/06/04 06:17:00;;;;;;;8.03;5.90;;;;;;;;;;5004061;28;20175;-76
2022/06/04 06:19:26;;;;;;;8.20;5.60;;;;;;;;;;5016992;28;20283;-76
2022/06/04 06:21:51;;;;;;;6.00;5.40;;;;;;;;;;5010104;28;20177;-76
2022/06/04 06:24:17;;;;;;;6.73;5.87;;;;;;;;;;5008746;28;20200;-77
2022/06/04 06:26:53;;;;;;;6.43;5.80;;;;;;;;;;5010587;28;20292;-76
2022/06/04 06:29:19;;;;;;;12.10;7.93;;;;;;;;;;5004407;28;20179;-76
2022/06/04 06:31:44;;;;;;;6.90;5.77;;;;;;;;;;5002826;28;20325;-76
2022/06/04 06:34:09;;;;;;;7.37;5.53;;;;;;;;;;5007224;28;20174;-77
2022/06/04 06:36:35;;;;;;;7.80;5.87;;;;;;;;;;5009085;28;20186;-76
2022/06/04 06:39:00;;;;;;;6.63;5.90;;;;;;;;;;5009683;28;20175;-76
2022/06/04 06:41:27;;;;;;;7.50;5.87;;;;;;;;;;5003749;28;20186;-76
2022/06/04 06:43:54;;;;;;;6.80;6.10;;;;;;;;;;5010412;28;20187;-77
2022/06/04 06:46:24;;;;;;;6.60;6.00;;;;;;;;;;5006665;28;20234;-76
2022/06/04 06:48:51;;;;;;;6.13;5.53;;;;;;;;;;5003538;28;20278;-76
2022/06/04 06:51:16;;;;;;;7.90;5.83;;;;;;;;;;5004839;28;20229;-77
2022/06/04 06:53:41;;;;;;;8.50;5.10;;;;;;;;;;5005369;28;20175;-76
2022/06/04 06:56:08;;;;;;;6.00;5.27;;;;;;;;;;5018692;28;20226;-76
2022/06/04 06:58:33;;;;;;;7.60;5.93;;;;;;;;;;5008712;28;20199;-76
2022/06/04 07:00:58;;;;;;;7.60;6.90;;;;;;;;;;5006997;28;20175;-76
2022/06/04 07:03:23;;;;;;;8.10;6.40;;;;;;;;;;5025499;28;20265;-76
2022/06/04 07:05:55;;;;;;;6.47;5.93;;;;;;;;;;5008293;28;20412;-76
2022/06/04 07:08:21;;;;;;;6.17;5.57;;;;;;;;;;5003403;28;20210;-76
2022/06/04 07:10:46;;;;;;;7.00;5.30;;;;;;;;;;5011049;28;20216;-76
2022/06/04 07:13:11;;;;;;;6.03;5.43;;;;;;;;;;5006087;28;20191;-76
2022/06/04 07:15:37;;;;;;;6.20;5.43;;;;;;;;;;5005799;28;20189;-77
2022/06/04 07:18:02;;;;;;;4.23;3.83;;;;;;;;;;5005005;28;20175;-77
2022/06/04 07:20:27;;;;;;;5.23;3.33;;;;;;;;;;5012468;28;20172;-76
2022/06/04 07:22:53;;;;;;;5.73;4.93;;;;;;;;;;4997932;28;20218;-77
2022/06/04 07:25:18;;;;;;;3.50;3.20;;;;;;;;;;5007669;28;20180;-77
2022/06/04 07:27:43;;;;;;;3.83;3.53;;;;;;;;;;5006331;28;20172;-77
2022/06/04 07:30:09;;;;;;;3.93;3.60;;;;;;;;;;5005083;28;20233;-77
2022/06/04 07:32:34;;;;;;;4.57;4.17;;;;;;;;;;5003921;28;20181;-77
2022/06/04 07:34:59;;;;;;;4.73;3.87;;;;;;;;;;5011387;28;20268;-77
2022/06/04 07:37:24;;;;;;;4.70;4.30;;;;;;;;;;5006762;28;20189;-77
2022/06/04 07:39:50;;;;;;;4.50;4.20;;;;;;;;;;5011246;28;20197;-77
2022/06/04 07:42:15;;;;;;;5.57;5.07;;;;;;;;;;5004674;28;20181;-77
2022/06/04 07:44:40;;;;;;;4.40;4.00;;;;;;;;;;5003030;28;20189;-77
2022/06/04 07:47:05;;;;;;;4.70;4.30;;;;;;;;;;5018945;28;20222;-77
2022/06/04 07:49:30;;;;;;;4.53;4.13;;;;;;;;;;5019940;28;20195;-77
2022/06/04 07:51:56;;;;;;;5.40;4.37;;;;;;;;;;5002544;28;20237;-76
2022/06/04 07:54:22;;;;;;;6.80;6.27;;;;;;;;;;5009835;28;20186;-76
2022/06/04 07:56:47;;;;;;;7.60;6.90;;;;;;;;;;5021467;28;20181;-77
2022/06/04 07:59:15;;;;;;;7.10;6.60;;;;;;;;;;5009334;28;20234;-77
2022/06/04 08:01:41;;;;;;;9.13;7.77;;;;;;;;;;5006793;28;20174;-77
2022/06/04 08:04:06;;;;;;;6.70;5.40;;;;;;;;;;5012524;28;20207;-77
2022/06/04 08:06:31;;;;;;;7.20;6.57;;;;;;;;;;5017139;28;20174;-77
2022/06/04 08:08:58;;;;;;;7.30;6.60;;;;;;;;;;5011827;28;20173;-77
2022/06/04 08:11:36;;;;;;;6.77;6.13;;;;;;;;;;5007455;28;20235;-76
2022/06/04 08:14:04;;;;;;;8.53;7.40;;;;;;;;;;5015695;28;20178;-77
2022/06/04 08:16:30;;;;;;;7.53;6.47;;;;;;;;;;5004441;28;20293;-76
2022/06/04 08:18:55;;;;;;;9.73;8.67;;;;;;;;;;5010767;28;20244;-77
2022/06/04 08:21:21;;;;;;;7.47;6.87;;;;;;;;;;5007978;28;20180;-77
2022/06/04 08:23:46;;;;;;;7.10;6.50;;;;;;;;;;5025180;28;20201;-77
2022/06/04 08:26:12;;;;;;;8.10;7.50;;;;;;;;;;5014266;28;20226;-76
2022/06/04 08:28:37;;;;;;;7.87;7.17;;;;;;;;;;5002749;28;20175;-77
2022/06/04 08:31:07;;;;;;;9.20;8.43;;;;;;;;;;5022589;28;20224;-76
2022/06/04 08:33:32;;;;;;;8.70;7.83;;;;;;;;;;5007619;28;20220;-76
2022/06/04 08:35:57;;;;;;;11.43;8.37;;;;;;;;;;5030242;28;20189;-77
2022/06/04 08:38:23;;;;;;;9.73;8.83;;;;;;;;;;5012457;28;20189;-77
2022/06/04 08:40:51;;;;;;;7.10;6.50;;;;;;;;;;5028587;28;20222;-77
2022/06/04 08:43:35;;;;;;;8.87;8.17;;;;;;;;;;5027331;28;20217;-76
2022/06/04 08:46:10;;;;;;;8.27;7.67;;;;;;;;;;5025860;28;20185;-77
2022/06/04 08:48:37;;;;;;;8.77;7.80;;;;;;;;;;5025371;28;20180;-77
2022/06/04 08:51:03;;;;;;;7.53;6.93;;;;;;;;;;5011890;28;20194;-76
2022/06/04 08:53:30;;;;;;;9.77;7.70;;;;;;;;;;5024534;28;20172;-77
2022/06/04 08:58:39;;;;;;;8.37;7.60;;;;;;;;;;5029255;28;20186;-77
2022/06/04 09:01:07;;;;;;;7.70;7.00;;;;;;;;;;5024570;28;20170;-77
2022/06/04 09:03:53;;;;;;;8.63;7.70;;;;;;;;;;5011668;28;20239;-77
2022/06/04 09:06:24;;;;;;;9.00;8.10;;;;;;;;;;5018555;28;20176;-76
2022/06/04 09:09:05;;;;;;;8.33;7.60;;;;;;;;;;5009410;28;20192;-77
2022/06/04 09:11:46;;;;;;;8.47;7.63;;;;;;;;;;5021141;28;20205;-77
2022/06/04 09:14:14;;;;;;;10.03;7.30;;;;;;;;;;5018220;28;20204;-76
2022/06/04 09:16:46;;;;;;;8.53;7.73;;;;;;;;;;5015498;28;20178;-76
2022/06/04 09:19:15;;;;;;;10.27;9.37;;;;;;;;;;5030355;28;20182;-76
2022/06/04 09:21:40;;;;;;;9.37;8.57;;;;;;;;;;5011206;28;20178;-76
2022/06/04 09:24:06;;;;;;;8.17;7.47;;;;;;;;;;5012877;28;20203;-76
2022/06/04 09:26:37;;;;;;;9.77;8.97;;;;;;;;;;5017110;28;20187;-76
2022/06/04 09:29:11;;;;;;;9.60;8.70;;;;;;;;;;5025720;28;20166;-76
2022/06/04 09:31:55;;;;;;;9.47;8.57;;;;;;;;;;5008215;28;20184;-76
2022/06/04 09:34:29;;;;;;;10.63;9.73;;;;;;;;;;5029172;28;20275;-76
2022/06/04 09:36:55;;;;;;;9.77;8.77;;;;;;;;;;5015101;28;20290;-76
2022/06/04 09:39:25;;;;;;;10.17;9.27;;;;;;;;;;5007393;28;20261;-77
2022/06/04 09:41:51;;;;;;;10.27;9.27;;;;;;;;;;5014944;28;20186;-77
2022/06/04 09:44:16;;;;;;;8.87;8.17;;;;;;;;;;5032482;28;20232;-77
2022/06/04 09:46:46;;;;;;;9.73;8.93;;;;;;;;;;5031828;28;20226;-77
2022/06/04 09:49:29;;;;;;;9.57;8.77;;;;;;;;;;5014680;28;20196;-77
2022/06/04 09:51:55;;;;;;;9.87;8.97;;;;;;;;;;5015571;28;20186;-76
2022/06/04 09:54:23;;;;;;;23.80;18.90;;;;;;;;;;5031296;28;20182;-76
2022/06/04 09:56:53;;;;;;;14.20;12.90;;;;;;;;;;5021830;28;20171;-80
2022/06/04 09:59:24;;;;;;;11.10;10.07;;;;;;;;;;5029486;28;20175;-80
2022/06/04 10:01:57;;;;;;;11.03;10.03;;;;;;;;;;5014898;28;20231;-80
2022/06/04 10:04:23;;;;;;;11.43;10.43;;;;;;;;;;5014793;28;20199;-80
2022/06/04 10:06:49;;;;;;;10.07;9.07;;;;;;;;;;5014239;28;20206;-80
2022/06/04 10:12:06;;;;;;;12.53;11.37;;;;;;;;;;5021009;28;20222;-80
2022/06/04 10:14:33;;;;;;;11.63;10.63;;;;;;;;;;5008330;28;20178;-80
2022/06/04 10:16:58;;;;;;;11.37;10.40;;;;;;;;;;5012953;28;20178;-80
2022/06/04 10:19:24;;;;;;;11.33;10.33;;;;;;;;;;5012373;28;20172;-80
2022/06/04 10:22:01;;;;;;;10.03;9.13;;;;;;;;;;5019365;28;20184;-80
2022/06/04 10:24:28;;;;;;;12.13;11.03;;;;;;;;;;5028984;28;20207;-80
2022/06/04 10:27:12;;;;;;;10.80;9.90;;;;;;;;;;5018730;28;20198;-77
2022/06/04 10:29:52;;;;;;;10.93;9.83;;;;;;;;;;5021169;28;20183;-77
2022/06/04 10:32:18;;;;;;;11.53;10.53;;;;;;;;;;5008770;28;20175;-77
2022/06/04 10:34:49;;;;;;;12.27;11.20;;;;;;;;;;5009866;28;20400;-78
2022/06/04 10:37:21;;;;;;;10.87;9.77;;;;;;;;;;5008761;28;20393;-77
2022/06/04 10:40:05;;;;;;;12.10;11.03;;;;;;;;;;5018472;28;20178;-77
2022/06/04 10:42:39;;;;;;;12.03;10.67;;;;;;;;;;5024456;28;20171;-77
2022/06/04 10:45:16;;;;;;;11.60;10.67;;;;;;;;;;5029135;28;20247;-77
2022/06/04 10:48:03;;;;;;;10.80;9.43;;;;;;;;;;5035785;28;20234;-77
2022/06/04 10:50:31;;;;;;;9.57;8.73;;;;;;;;;;5013776;28;20192;-77
2022/06/04 10:53:00;;;;;;;10.97;10.07;;;;;;;;;;5013774;28;20176;-77
2022/06/04 10:55:31;;;;;;;9.27;8.37;;;;;;;;;;5012230;28;20180;-77
2022/06/04 10:57:56;;;;;;;11.67;10.57;;;;;;;;;;5013837;28;20176;-78
2022/06/04 11:00:35;;;;;;;9.47;8.67;;;;;;;;;;5017857;28;20207;-77
2022/06/04 11:03:05;;;;;;;11.20;10.23;;;;;;;;;;5012855;28;20224;-78
2022/06/04 11:05:42;;;;;;;10.10;9.30;;;;;;;;;;5005270;28;20169;-78
2022/06/04 11:08:14;;;;;;;10.60;9.57;;;;;;;;;;5012988;28;20182;-77
2022/06/04 11:10:43;;;;;;;10.83;9.97;;;;;;;;;;5011008;28;20186;-77
2022/06/04 11:13:08;;;;;;;10.40;9.60;;;;;;;;;;5013128;28;20192;-76
2022/06/04 11:15:42;;;;;;;11.53;10.73;;;;;;;;;;5008889;28;20178;-77
2022/06/04 11:18:11;;;;;;;8.70;7.90;;;;;;;;;;5009953;28;20181;-77
2022/06/04 11:20:38;;;;;;;9.10;8.23;;;;;;;;;;5009732;28;20271;-77
2022/06/04 11:23:19;;;;;;;8.67;7.87;;;;;;;;;;5008114;28;20209;-77
2022/06/04 11:25:46;;;;;;;8.13;7.30;;;;;;;;;;5023378;28;20177;-77
2022/06/04 11:28:14;;;;;;;8.90;8.07;;;;;;;;;;5011600;28;20182;-77
2022/06/04 11:30:39;;;;;;;8.30;7.33;;;;;;;;;;5009019;28;20206;-77
2022/06/04 11:33:13;;;;;;;7.10;6.47;;;;;;;;;;5027175;28;20320;-77
2022/06/04 11:35:42;;;;;;;6.70;6.20;;;;;;;;;;5008501;28;20182;-77
2022/06/04 11:38:11;;;;;;;7.07;5.93;;;;;;;;;;5009885;28;20189;-77
2022/06/04 11:40:37;;;;;;;6.40;5.90;;;;;;;;;;5007232;28;20182;-77
2022/06/04 11:43:13;;;;;;;6.07;5.57;;;;;;;;;;5008147;28;20190;-76
2022/06/04 11:45:38;;;;;;;5.90;5.43;;;;;;;;;;5021256;28;20256;-77
2022/06/04 11:48:07;;;;;;;6.05;5.45;;;;;;;;;;5008635;28;20260;-77
2022/06/04 11:50:38;;;;;;;6.33;5.80;;;;;;;;;;5017366;28;20210;-78
2022/06/04 11:53:25;;;;;;;5.90;5.17;;;;;;;;;;5002471;28;20172;-77
2022/06/04 11:55:53;;;;;;;8.07;6.00;;;;;;;;;;5016778;28;20178;-77
2022/06/04 11:58:31;;;;;;;6.75;4.97;;;;;;;;;;5006102;28;20180;-77
2022/06/04 12:00:59;;;;;;;6.20;5.63;;;;;;;;;;5012084;28;20329;-78
2022/06/04 12:03:31;;;;;;;5.80;5.20;;;;;;;;;;5013771;28;20248;-77
2022/06/04 12:06:02;;;;;;;5.95;5.47;;;;;;;;;;5014139;28;20167;-77
2022/06/04 12:08:30;;;;;;;5.93;5.45;;;;;;;;;;5012791;28;20207;-77
2022/06/04 12:10:59;;;;;;;7.22;5.95;;;;;;;;;;5008397;28;20168;-77
2022/06/04 12:13:27;;;;;;;6.22;5.82;;;;;;;;;;5016009;28;20188;-77
2022/06/04 12:15:58;;;;;;;7.78;6.57;;;;;;;;;;5006264;28;20181;-77
2022/06/04 12:18:30;;;;;;;6.75;6.22;;;;;;;;;;5014558;28;20191;-77
2022/06/04 12:26:32;;;;;;;9.10;6.57;;;;;;;;;;5011521;28;20182;-77
2022/06/04 12:28:57;;;;;;;6.80;6.30;;;;;;;;;;5013384;28;20172;-78
2022/06/04 12:31:27;;;;;;;14.38;13.30;;;;;;;;;;5012352;28;20301;-77
2022/06/04 12:33:52;;;;;;;6.63;5.93;;;;;;;;;;5013251;28;20175;-77
2022/06/04 12:36:28;;;;;;;6.60;6.07;;;;;;;;;;5011756;28;20182;-77
2022/06/04 12:39:05;;;;;;;8.35;7.65;;;;;;;;;;5004424;28;20176;-77
2022/06/04 12:41:38;;;;;;;8.65;7.85;;;;;;;;;;5021446;28;20266;-76
2022/06/04 12:44:06;;;;;;;7.28;6.65;;;;;;;;;;5003789;28;20280;-77
2022/06/04 12:46:33;;;;;;;7.38;6.68;;;;;;;;;;5019383;28;20227;-77
2022/06/04 12:49:20;;;;;;;7.03;6.40;;;;;;;;;;5011226;28;20175;-77
2022/06/04 12:51:52;;;;;;;6.07;5.68;;;;;;;;;;5025917;28;20178;-77
2022/06/04 12:54:23;;;;;;;5.75;5.25;;;;;;;;;;5031421;28;20171;-77
2022/06/04 12:56:56;;;;;;;6.15;5.63;;;;;;;;;;5004234;28;20186;-76
2022/06/04 12:59:41;;;;;;;5.28;4.88;;;;;;;;;;5027387;28;20183;-77
2022/06/04 13:02:25;;;;;;;5.05;4.60;;;;;;;;;;5025029;28;20190;-76
2022/06/04 13:05:05;;;;;;;5.75;5.25;;;;;;;;;;5015252;28;20218;-77
2022/06/04 13:07:35;;;;;;;5.55;4.63;;;;;;;;;;5016287;28;20179;-77
2022/06/04 13:10:06;;;;;;;4.57;4.28;;;;;;;;;;5014305;28;20363;-76
2022/06/04 13:12:31;;;;;;;5.57;5.07;;;;;;;;;;5009039;28;20171;-77
2022/06/04 13:15:15;;;;;;;6.97;6.43;;;;;;;;;;5030783;28;20171;-77
2022/06/04 13:17:46;;;;;;;6.95;6.35;;;;;;;;;;5026293;28;20183;-76
2022/06/04 13:20:31;;;;;;;6.72;6.22;;;;;;;;;;5014769;28;20201;-77
2022/06/04 13:22:59;;;;;;;6.80;6.30;;;;;;;;;;5022333;28;20249;-77
2022/06/04 13:25:30;;;;;;;5.88;5.47;;;;;;;;;;5014425;28;20210;-76
2022/06/04 13:27:56;;;;;;;6.03;5.47;;;;;;;;;;5022851;28;20179;-77
2022/06/04 13:30:23;;;;;;;6.78;6.22;;;;;;;;;;5010735;28;20182;-77
2022/06/04 13:32:51;;;;;;;5.63;5.22;;;;;;;;;;5012653;28;20175;-77
2022/06/04 13:35:22;;;;;;;5.57;5.18;;;;;;;;;;5012451;28;20185;-77
2022/06/04 13:37:49;;;;;;;5.85;5.35;;;;;;;;;;5032514;28;20190;-76
2022/06/04 13:40:17;;;;;;;6.60;5.85;;;;;;;;;;5018926;28;20184;-77
2022/06/04 13:42:47;;;;;;;5.38;5.03;;;;;;;;;;5009898;28;20223;-77
2022/06/04 13:45:12;;;;;;;5.78;5.28;;;;;;;;;;5023959;28;20179;-77
2022/06/04 13:47:49;;;;;;;6.97;6.32;;;;;;;;;;5020765;28;20219;-76
2022/06/04 13:50:17;;;;;;;5.45;4.97;;;;;;;;;;5013852;28;20201;-76
2022/06/04 13:52:54;;;;;;;5.32;4.82;;;;;;;;;;5019651;28;20186;-77
2022/06/04 13:55:37;;;;;;;5.63;5.22;;;;;;;;;;5029724;28;20181;-77
2022/06/04 13:58:09;;;;;;;5.90;5.50;;;;;;;;;;5027873;28;20168;-76
2022/06/04 14:00:37;;;;;;;6.28;5.72;;;;;;;;;;5015120;28;20197;-76
2022/06/04 14:03:08;;;;;;;6.30;5.80;;;;;;;;;;5029236;28;20203;-77
2022/06/04 14:05:46;;;;;;;5.95;5.50;;;;;;;;;;5007023;28;20171;-76
2022/06/04 14:08:13;;;;;;;6.60;6.10;;;;;;;;;;5020895;28;20258;-76
2022/06/04 14:10:39;;;;;;;6.03;5.53;;;;;;;;;;5012819;28;20181;-77
2022/06/04 14:13:26;;;;;;;5.90;5.43;;;;;;;;;;5017933;28;20179;-76
2022/06/04 14:16:05;;;;;;;6.35;5.82;;;;;;;;;;5005721;28;20180;-77
2022/06/04 14:18:54;;;;;;;6.13;5.68;;;;;;;;;;5028056;28;20177;-76
2022/06/04 14:21:38;;;;;;;6.50;6.00;;;;;;;;;;5025467;28;20175;-76
2022/06/04 14:24:17;;;;;;;5.65;5.13;;;;;;;;;;5008439;28;20249;-76
2022/06/04 14:26:54;;;;;;;6.53;5.90;;;;;;;;;;5012240;28;20168;-77
2022/06/04 14:29:38;;;;;;;6.47;5.93;;;;;;;;;;5021513;28;20427;-76
2022/06/04 14:32:12;;;;;;;5.55;5.15;;;;;;;;;;5030325;28;20167;-77
2022/06/04 14:34:38;;;;;;;6.03;5.60;;;;;;;;;;5013042;28;20253;-77
2022/06/04 14:37:04;;;;;;;5.93;5.43;;;;;;;;;;5014159;28;20616;-77
2022/06/04 14:39:31;;;;;;;6.47;5.90;;;;;;;;;;5026729;28;20179;-76
2022/06/04 14:42:01;;;;;;;6.28;5.50;;;;;;;;;;5026566;28;20210;-77
2022/06/04 14:44:27;;;;;;;7.28;6.15;;;;;;;;;;5011033;28;20294;-76
2022/06/04 14:47:13;;;;;;;6.30;5.80;;;;;;;;;;5012592;28;20420;-76
2022/06/04 14:49:50;;;;;;;7.28;6.57;;;;;;;;;;5013326;28;20196;-77
2022/06/04 14:52:28;;;;;;;7.93;7.20;;;;;;;;;;5017894;28;20176;-77
2022/06/04 14:54:55;;;;;;;7.47;6.82;;;;;;;;;;5004458;28;20230;-76
2022/06/04 14:57:20;;;;;;;7.00;6.50;;;;;;;;;;5010099;28;20263;-77
2022/06/04 15:00:08;;;;;;;7.00;6.40;;;;;;;;;;5002890;28;20259;-77
2022/06/04 15:02:46;;;;;;;7.07;6.57;;;;;;;;;;5005924;28;20428;-76
2022/06/04 15:05:29;;;;;;;6.63;6.05;;;;;;;;;;5010947;28;20172;-77
2022/06/04 15:08:04;;;;;;;6.15;5.55;;;;;;;;;;5010117;28;20168;-77